Schedule Details

Flight Number: CPX804
Departure: Guantánamo Bay Naval Air Station (MUGM) at N/A
Arrival: Norfolk Naval Station (Chambers Field) (KNGU) at N/A
Route: SOUTP EASTP ZIN Y350 ZQA BR65V ZFP WOLFO AR18 PANAL AR3 CLB ISO DRONE2


Current Weather Information
MUGM 151956Z 18008KT 9999 FEW035 FEW120 28/22 A2991 RMK SLP128 T02810218
KNGU 151959Z 23009G19KT 10SM FEW190 OVC300 21/M02 A2974 RMK AO2 SLP071 T02111022

Route Map